Time;durP1;ratioP1;P1;durP2;ratioP2;P2;SDS_P1;SDS_P2;PMS_P1;PMS_P2;Temp;Humidity;BMP_temperature;BMP_pressure;BME280_temperature;BME280_humidity;BME280_pressure;Samples;Min_cycle;Max_cycle;Signal;HPM_P1;HPM_P2
2021/09/11 00:00:47;;;;;;;;;5.25;5.25;;;;;19.92;70.66;101656.53;4903619;29;45358;-81
2021/09/11 00:03:13;;;;;;;;;5.00;5.00;;;;;19.88;70.12;101655.81;4903434;29;45555;-81
2021/09/11 00:05:38;;;;;;;;;4.25;4.25;;;;;19.88;69.53;101662.03;4903974;29;45408;-82
2021/09/11 00:08:04;;;;;;;;;7.25;4.50;;;;;19.92;71.34;101668.06;4903759;29;45654;-82
2021/09/11 00:10:31;;;;;;;;;5.75;5.75;;;;;19.98;70.71;101672.16;4886754;29;46498;-83
2021/09/11 00:12:57;;;;;;;;;3.50;3.50;;;;;20.01;70.67;101669.31;4903746;29;45210;-83
2021/09/11 00:15:22;;;;;;;;;6.50;4.00;;;;;20.04;70.88;101668.28;4903556;29;45245;-81
2021/09/11 00:17:48;;;;;;;;;7.00;5.25;;;;;20.05;70.59;101672.69;4903108;29;45483;-81
2021/09/11 00:20:14;;;;;;;;;4.75;4.25;;;;;20.02;70.01;101658.56;4903182;29;45181;-81
2021/09/11 00:22:39;;;;;;;;;5.00;4.00;;;;;20.02;70.05;101661.25;4903353;29;45692;-81
2021/09/11 00:25:08;;;;;;;;;3.75;3.75;;;;;20.08;70.17;101664.47;4903978;29;45482;-84
2021/09/11 00:27:33;;;;;;;;;5.50;4.50;;;;;20.06;69.11;101661.91;4903399;29;45595;-82
2021/09/11 00:29:59;;;;;;;;;6.25;3.25;;;;;20.12;69.16;101666.06;4903091;29;46595;-82
2021/09/11 00:32:24;;;;;;;;;6.00;4.00;;;;;20.13;69.48;101662.44;4903249;29;45229;-82
2021/09/11 00:34:49;;;;;;;;;6.00;4.50;;;;;20.16;68.91;101659.59;4903641;29;45277;-81
2021/09/11 00:37:15;;;;;;;;;4.25;3.00;;;;;20.19;68.21;101654.06;4903571;29;45237;-81
2021/09/11 00:39:40;;;;;;;;;3.75;3.75;;;;;20.20;68.72;101663.78;4903161;29;45232;-81
2021/09/11 00:42:06;;;;;;;;;3.25;3.25;;;;;20.19;68.67;101661.22;4902985;29;45293;-81
2021/09/11 00:44:31;;;;;;;;;4.50;4.00;;;;;20.21;67.49;101668.19;4903637;29;45432;-85
2021/09/11 00:46:56;;;;;;;;;4.00;4.00;;;;;20.16;68.64;101658.72;4903233;29;45339;-82
2021/09/11 00:49:22;;;;;;;;;3.00;3.00;;;;;20.19;68.13;101664.75;4903354;29;46458;-82
2021/09/11 00:51:48;;;;;;;;;4.00;4.00;;;;;20.20;68.13;101665.63;4903365;29;45325;-82
2021/09/11 00:54:14;;;;;;;;;5.00;3.50;;;;;20.21;67.73;101667.31;4903281;29;45315;-82
2021/09/11 00:56:39;;;;;;;;;4.25;4.25;;;;;20.17;67.77;101653.31;4903302;29;45529;-83
2021/09/11 00:59:05;;;;;;;;;2.00;2.00;;;;;20.20;67.62;101660.28;4902595;29;45604;-83
2021/09/11 01:01:31;;;;;;;;;4.00;3.50;;;;;20.16;66.98;101659.59;4902465;29;45380;-83
2021/09/11 01:03:56;;;;;;;;;4.75;4.75;;;;;20.12;67.78;101660.72;4902535;29;45808;-82
2021/09/11 01:06:24;;;;;;;;;2.75;2.75;;;;;20.15;67.79;101670.38;4902983;29;45360;-82
2021/09/11 01:08:49;;;;;;;;;2.25;2.25;;;;;20.07;66.51;101673.44;4903295;29;45410;-83
2021/09/11 01:11:15;;;;;;;;;3.50;3.50;;;;;20.03;67.03;101675.41;4903007;29;45237;-82
2021/09/11 01:13:42;;;;;;;;;4.75;3.50;;;;;19.98;66.84;101672.16;4903265;29;45193;-83
2021/09/11 01:16:08;;;;;;;;;5.25;5.25;;;;;19.97;66.83;101676.66;4902492;29;45655;-82
2021/09/11 01:18:34;;;;;;;;;5.25;5.00;;;;;19.95;67.35;101683.88;4902364;29;45439;-83
2021/09/11 01:21:00;;;;;;;;;4.00;4.00;;;;;19.99;66.82;101684.56;4902783;29;45452;-82
2021/09/11 01:23:27;;;;;;;;;4.25;4.25;;;;;19.90;67.11;101678.81;4903166;29;45406;-82
2021/09/11 01:25:52;;;;;;;;;3.50;3.50;;;;;19.88;67.21;101677.16;4885994;29;46032;-79
2021/09/11 01:28:18;;;;;;;;;6.50;3.75;;;;;19.89;67.12;101673.56;4902227;29;46513;-79
2021/09/11 01:30:44;;;;;;;;;3.00;3.00;;;;;19.86;66.58;101679.06;4902516;29;46752;-79
2021/09/11 01:33:10;;;;;;;;;5.00;4.00;;;;;19.90;66.75;101685.97;4902618;29;45441;-79
2021/09/11 01:35:36;;;;;;;;;4.25;3.75;;;;;19.83;66.21;101677.44;4902973;29;45269;-79
2021/09/11 01:38:01;;;;;;;;;1.50;1.50;;;;;19.75;66.50;101675.25;4902587;29;45255;-81
2021/09/11 01:40:27;;;;;;;;;3.00;3.00;;;;;19.78;66.20;101688.38;4902607;29;45285;-81
2021/09/11 01:42:53;;;;;;;;;3.25;3.25;;;;;19.74;65.83;101696.66;4901995;29;45315;-82
2021/09/11 01:45:20;;;;;;;;;4.00;4.00;;;;;19.64;66.90;101689.16;4902493;29;45390;-82
2021/09/11 01:47:48;;;;;;;;;3.00;3.00;;;;;19.65;66.40;101692.69;4902291;29;46756;-82
2021/09/11 01:50:15;;;;;;;;;1.75;1.75;;;;;19.60;66.06;101690.31;4902759;29;45476;-81
2021/09/11 01:52:42;;;;;;;;;2.75;2.50;;;;;19.63;66.57;101698.09;4902733;29;45309;-77
2021/09/11 01:55:09;;;;;;;;;3.75;3.00;;;;;19.59;66.65;101698.38;4902305;29;45503;-86
2021/09/11 01:57:36;;;;;;;;;4.25;3.25;;;;;19.60;66.84;101695.63;4884572;29;47332;-93
2021/09/11 02:00:06;;;;;;;;;4.50;4.50;;;;;19.55;65.80;101692.38;4885215;29;45698;-88
2021/09/11 02:02:31;;;;;;;;;2.50;2.50;;;;;19.51;66.77;101682.78;4902012;29;45221;-88
2021/09/11 02:04:56;;;;;;;;;3.00;3.00;;;;;19.56;66.95;101684.25;4902434;29;45297;-86
2021/09/11 02:07:22;;;;;;;;;3.75;3.75;;;;;19.59;66.09;101685.03;4902102;29;46270;-81
2021/09/11 02:09:47;;;;;;;;;4.00;3.75;;;;;19.57;65.65;101687.81;4902425;29;45272;-82
2021/09/11 02:12:12;;;;;;;;;4.00;2.75;;;;;19.52;66.29;101672.06;4904544;29;45277;-82
2021/09/11 02:14:38;;;;;;;;;4.00;3.25;;;;;19.59;66.04;101682.38;4905729;29;45367;-81
2021/09/11 02:17:04;;;;;;;;;3.50;3.50;;;;;19.60;65.47;101694.78;4905452;29;45204;-81
2021/09/11 02:19:31;;;;;;;;;3.00;2.50;;;;;19.60;66.10;101697.44;4905179;29;45521;-81
2021/09/11 02:21:56;;;;;;;;;4.75;3.75;;;;;19.54;65.77;101685.28;4905166;29;45366;-81
2021/09/11 02:24:22;;;;;;;;;6.00;4.50;;;;;19.49;65.63;101680.22;4905114;29;45395;-81
2021/09/11 02:26:47;;;;;;;;;3.00;3.00;;;;;19.48;65.65;101681.19;4905035;29;45491;-81
2021/09/11 02:29:12;;;;;;;;;4.25;4.25;;;;;19.47;65.43;101684.78;4905695;29;45423;-82
2021/09/11 02:31:38;;;;;;;;;5.50;4.00;;;;;19.47;65.68;101689.25;4905034;29;45398;-82
2021/09/11 02:34:03;;;;;;;;;4.00;4.00;;;;;19.43;65.48;101692.09;4905146;29;45510;-82
2021/09/11 02:36:29;;;;;;;;;3.00;3.00;;;;;19.39;66.32;101689.69;4905136;29;45446;-82
2021/09/11 02:38:54;;;;;;;;;3.25;3.25;;;;;19.40;66.68;101678.94;4905512;29;45331;-81
2021/09/11 02:41:19;;;;;;;;;4.75;4.00;;;;;19.36;66.48;101677.38;4905181;29;45423;-82
2021/09/11 02:43:45;;;;;;;;;4.25;4.25;;;;;19.36;66.48;101679.22;4904729;29;45412;-82
2021/09/11 02:46:11;;;;;;;;;3.50;2.25;;;;;19.29;66.65;101676.00;4904868;29;45568;-81
2021/09/11 02:48:36;;;;;;;;;3.50;3.00;;;;;19.18;66.43;101673.94;4904635;29;45474;-81
2021/09/11 02:51:02;;;;;;;;;1.75;1.75;;;;;19.17;66.93;101685.50;4905402;29;45253;-82
2021/09/11 02:53:27;;;;;;;;;3.75;3.75;;;;;19.08;67.02;101678.88;4904938;29;45480;-81
2021/09/11 02:55:52;;;;;;;;;2.25;2.25;;;;;19.04;67.23;101678.19;4904772;29;45283;-81
2021/09/11 02:58:22;;;;;;;;;4.50;3.75;;;;;18.99;67.13;101672.22;4905195;29;45194;-82
2021/09/11 03:00:48;;;;;;;;;2.75;2.75;;;;;18.94;67.38;101674.31;4887960;29;45329;-81
2021/09/11 03:03:13;;;;;;;;;4.00;4.00;;;;;18.89;67.18;101675.41;4904463;29;45530;-81
2021/09/11 03:05:38;;;;;;;;;4.00;4.00;;;;;18.84;67.79;101673.94;4887787;29;47978;-82
2021/09/11 03:08:04;;;;;;;;;3.00;3.00;;;;;18.80;67.92;101673.22;4904191;29;45328;-81
2021/09/11 03:10:29;;;;;;;;;3.00;3.00;;;;;18.73;67.80;101674.50;4905048;29;45541;-81
2021/09/11 03:12:55;;;;;;;;;4.00;4.00;;;;;18.67;68.30;101678.34;4904480;29;45237;-81
2021/09/11 03:15:20;;;;;;;;;3.00;3.00;;;;;18.62;68.09;101673.25;4904837;29;45262;-81
2021/09/11 03:17:45;;;;;;;;;4.00;4.00;;;;;18.62;68.26;101678.59;4904440;29;45387;-83
2021/09/11 03:20:11;;;;;;;;;5.25;3.00;;;;;18.57;68.55;101675.31;4904366;29;45144;-87
2021/09/11 03:22:36;;;;;;;;;4.00;4.00;;;;;18.56;67.41;101681.59;4886861;29;45707;-88
2021/09/11 03:25:03;;;;;;;;;4.00;3.50;;;;;18.54;68.61;101675.47;4887365;29;47169;-87
2021/09/11 03:27:29;;;;;;;;;5.00;3.00;;;;;18.53;68.26;101687.06;4887146;29;45615;-84
2021/09/11 03:29:54;;;;;;;;;5.75;5.00;;;;;18.52;67.91;101688.84;4904708;29;45497;-81
2021/09/11 03:32:19;;;;;;;;;3.75;3.00;;;;;18.46;67.85;101683.00;4904055;29;45503;-82
2021/09/11 03:34:45;;;;;;;;;3.25;3.25;;;;;18.44;67.89;101688.41;4903704;29;45379;-83
2021/09/11 03:37:10;;;;;;;;;3.00;3.00;;;;;18.45;67.47;101687.44;4904147;29;45333;-82
2021/09/11 03:39:35;;;;;;;;;3.00;3.00;;;;;18.44;68.08;101680.44;4904183;29;45434;-82
2021/09/11 03:42:01;;;;;;;;;2.75;2.75;;;;;18.48;67.73;101686.44;4904448;29;45378;-82
2021/09/11 03:44:26;;;;;;;;;4.00;3.00;;;;;18.43;67.38;101684.88;4904201;29;45655;-82
2021/09/11 03:46:52;;;;;;;;;3.00;3.00;;;;;18.46;67.56;101683.00;4903973;29;45370;-82
2021/09/11 03:49:17;;;;;;;;;3.00;3.00;;;;;18.51;67.87;101687.16;4904500;29;45300;-84
2021/09/11 03:51:43;;;;;;;;;2.25;2.25;;;;;18.50;68.02;101690.75;4904141;29;45739;-84
2021/09/11 03:54:08;;;;;;;;;3.75;3.75;;;;;18.47;67.61;101679.41;4904473;29;45394;-82
2021/09/11 03:56:33;;;;;;;;;2.00;2.00;;;;;18.48;68.09;101686.44;4886809;29;45547;-84
2021/09/11 03:58:59;;;;;;;;;2.00;2.00;;;;;18.43;67.90;101679.56;4887217;29;45313;-83
2021/09/11 04:01:24;;;;;;;;;4.00;3.00;;;;;18.46;68.01;101696.31;4904007;29;45654;-83
2021/09/11 04:03:49;;;;;;;;;3.00;3.00;;;;;18.46;68.26;101696.31;4886311;29;47094;-83
2021/09/11 04:06:15;;;;;;;;;1.75;1.75;;;;;18.47;68.30;101698.03;4904312;29;45363;-89
2021/09/11 04:08:40;;;;;;;;;3.00;3.00;;;;;18.44;68.34;101699.94;4903604;29;45233;-87
2021/09/11 04:11:06;;;;;;;;;3.25;2.50;;;;;18.42;68.51;101693.78;4904056;29;45386;-85
2021/09/11 04:13:33;;;;;;;;;3.50;3.50;;;;;18.41;67.28;101699.19;4886696;29;47983;-83
2021/09/11 04:15:59;;;;;;;;;3.00;3.00;;;;;18.34;67.68;101696.00;4903701;29;45220;-81
2021/09/11 04:18:24;;;;;;;;;3.00;2.75;;;;;18.35;68.25;101703.03;4903504;29;45506;-81
2021/09/11 04:20:50;;;;;;;;;3.00;3.00;;;;;18.27;68.03;101689.28;4903537;29;45479;-81
2021/09/11 04:23:15;;;;;;;;;3.00;3.00;;;;;18.27;67.75;101694.59;4886786;29;45942;-82
2021/09/11 04:25:41;;;;;;;;;5.25;4.25;;;;;18.25;67.99;101688.50;4903710;29;45432;-82
2021/09/11 04:28:07;;;;;;;;;3.75;3.75;;;;;18.27;68.51;101699.91;4903757;29;45395;-82
2021/09/11 04:30:32;;;;;;;;;5.25;2.00;;;;;18.22;68.54;101693.00;4903509;29;45447;-82
2021/09/11 04:32:57;;;;;;;;;3.25;3.25;;;;;18.26;67.96;101701.72;4902787;29;46704;-82
2021/09/11 04:35:23;;;;;;;;;6.75;3.25;;;;;18.21;67.98;101701.06;4903158;29;45346;-82
2021/09/11 04:37:48;;;;;;;;;5.50;3.00;;;;;18.20;68.22;101702.88;4903775;29;45281;-82
2021/09/11 04:40:14;;;;;;;;;4.25;3.25;;;;;18.17;68.29;101705.66;4903028;29;45437;-84
2021/09/11 04:42:39;;;;;;;;;3.75;3.00;;;;;18.16;68.18;101708.38;4886330;29;47712;-82
2021/09/11 04:45:05;;;;;;;;;4.00;3.00;;;;;18.12;68.47;101699.72;4903444;29;45343;-83
2021/09/11 04:47:31;;;;;;;;;4.75;3.00;;;;;18.08;68.44;101701.66;4886404;29;45309;-89
2021/09/11 04:49:56;;;;;;;;;3.00;2.50;;;;;18.06;68.52;101703.53;4886086;29;46289;-82
2021/09/11 04:52:22;;;;;;;;;4.75;3.75;;;;;18.07;67.53;101709.72;4903012;29;45355;-82
2021/09/11 04:54:47;;;;;;;;;4.00;3.00;;;;;18.04;67.88;101702.75;4903361;29;45320;-82
2021/09/11 04:57:12;;;;;;;;;3.00;3.00;;;;;18.04;68.26;101704.53;4886229;29;45294;-84
2021/09/11 04:59:38;;;;;;;;;4.00;3.25;;;;;17.98;67.38;101701.25;4902466;29;45427;-84
2021/09/11 05:02:03;;;;;;;;;4.00;3.00;;;;;18.00;67.73;101711.84;4900777;29;46606;-84
2021/09/11 05:04:29;;;;;;;;;2.75;2.75;;;;;17.99;67.59;101700.31;4903215;29;45233;-84
2021/09/11 05:06:54;;;;;;;;;2.25;2.00;;;;;17.99;67.36;101702.97;4902967;29;45614;-83
2021/09/11 05:09:20;;;;;;;;;2.25;2.25;;;;;17.96;66.83;101699.59;4903080;29;45403;-88
2021/09/11 05:11:46;;;;;;;;;3.50;1.75;;;;;17.96;67.39;101703.13;4902832;29;46426;-87
2021/09/11 05:14:12;;;;;;;;;6.00;2.25;;;;;17.92;67.11;101706.88;4903211;29;45750;-86
2021/09/11 05:16:37;;;;;;;;;3.50;3.25;;;;;17.90;67.33;101700.78;4902820;29;45395;-87
2021/09/11 05:19:03;;;;;;;;;5.75;3.00;;;;;17.90;66.95;101707.91;4902421;29;45435;-86
2021/09/11 05:21:28;;;;;;;;;3.00;2.25;;;;;17.91;68.25;101715.78;4901317;29;46218;-84
2021/09/11 05:23:53;;;;;;;;;3.00;3.00;;;;;17.91;67.70;101718.44;4902929;29;45451;-83
2021/09/11 05:26:19;;;;;;;;;3.50;3.25;;;;;17.91;68.31;101717.56;4900847;29;45289;-83
2021/09/11 05:28:44;;;;;;;;;2.75;2.75;;;;;17.94;67.35;101720.97;4899932;29;45554;-82
2021/09/11 05:31:09;;;;;;;;;3.25;3.25;;;;;17.95;67.34;101725.31;4899803;29;46121;-82
2021/09/11 05:33:35;;;;;;;;;2.75;2.75;;;;;17.92;67.63;101722.84;4893132;29;46672;-81
2021/09/11 05:36:00;;;;;;;;;5.25;3.25;;;;;17.89;67.34;101715.00;4885933;29;45333;-81
2021/09/11 05:38:26;;;;;;;;;2.00;2.00;;;;;17.89;67.40;101720.31;4889936;29;45203;-81
2021/09/11 05:40:51;;;;;;;;;3.00;3.00;;;;;17.88;67.19;101721.25;4902709;29;45277;-81
2021/09/11 05:43:16;;;;;;;;;3.00;3.00;;;;;17.87;67.07;101724.84;4902629;29;45379;-84
2021/09/11 05:45:42;;;;;;;;;4.00;4.00;;;;;17.86;67.68;101718.66;4901680;29;45332;-83
2021/09/11 05:48:08;;;;;;;;;5.25;5.00;;;;;17.81;67.59;101714.50;4904557;29;45500;-84
2021/09/11 05:50:33;;;;;;;;;3.00;3.00;;;;;17.80;67.04;101726.09;4905235;29;45279;-83
2021/09/11 05:52:59;;;;;;;;;4.50;4.00;;;;;17.77;67.51;101725.31;4905846;29;45261;-83
2021/09/11 05:55:24;;;;;;;;;4.00;4.00;;;;;17.77;67.51;101725.31;4905896;29;45211;-83
2021/09/11 05:57:49;;;;;;;;;6.00;3.00;;;;;17.87;67.78;101740.81;4896150;29;45553;-84
2021/09/11 06:00:15;;;;;;;;;3.75;3.75;;;;;17.86;67.61;101742.59;4904442;29;45319;-84
2021/09/11 06:02:40;;;;;;;;;4.00;4.00;;;;;17.84;67.52;101743.59;4904088;29;45479;-84
2021/09/11 06:05:06;;;;;;;;;4.25;4.25;;;;;17.92;67.61;101743.25;4905699;29;45388;-84
2021/09/11 06:07:32;;;;;;;;;3.50;3.50;;;;;17.97;67.66;101760.72;4895118;29;45542;-83
2021/09/11 06:10:00;;;;;;;;;3.75;3.00;;;;;17.94;66.93;101757.31;4904227;29;45532;-83
2021/09/11 06:12:25;;;;;;;;;2.25;2.25;;;;;17.96;67.18;101761.63;4898172;29;45218;-84
2021/09/11 06:14:51;;;;;;;;;3.00;3.00;;;;;18.02;68.16;101771.13;4905771;29;45450;-84
2021/09/11 06:17:16;;;;;;;;;3.75;3.25;;;;;18.00;67.60;101771.19;4898414;29;45549;-83
2021/09/11 06:19:42;;;;;;;;;2.75;2.75;;;;;18.05;67.36;101768.28;4899574;29;45290;-83
2021/09/11 06:22:10;;;;;;;;;3.00;2.25;;;;;18.08;67.32;101767.28;4905677;29;45279;-83
2021/09/11 06:24:37;;;;;;;;;3.25;2.00;;;;;18.09;66.68;101779.66;4903646;29;45370;-82
2021/09/11 06:27:03;;;;;;;;;3.75;1.50;;;;;18.14;67.13;101782.09;4904468;29;45687;-83
2021/09/11 06:29:29;;;;;;;;;2.75;2.00;;;;;18.18;66.87;101773.03;4876058;29;46720;-82
2021/09/11 06:31:54;;;;;;;;;1.25;1.25;;;;;18.26;66.59;101786.84;4898170;29;45399;-83
2021/09/11 06:34:19;;;;;;;;;4.50;3.75;;;;;18.24;67.07;101782.53;4887918;29;47038;-83
2021/09/11 06:36:45;;;;;;;;;3.00;1.75;;;;;18.27;66.00;101775.25;4900593;29;46088;-83
2021/09/11 06:39:10;;;;;;;;;1.00;1.00;;;;;18.30;67.00;101785.75;4894869;29;45432;-82
2021/09/11 06:41:36;;;;;;;;;2.50;2.00;;;;;18.32;66.51;101780.38;4888023;29;45965;-84
2021/09/11 06:44:01;;;;;;;;;2.25;1.25;;;;;18.32;66.39;101778.56;4903157;29;45253;-81
2021/09/11 06:46:26;;;;;;;;;2.25;2.00;;;;;18.34;66.82;101767.84;4903567;29;45244;-81
2021/09/11 06:48:52;;;;;;;;;3.50;2.25;;;;;18.40;66.59;101770.19;4901096;29;46871;-82
2021/09/11 06:51:17;;;;;;;;;3.25;2.75;;;;;18.50;66.30;101786.56;4905332;29;45273;-83
2021/09/11 06:53:43;;;;;;;;;2.00;2.00;;;;;18.49;66.41;101784.84;4905374;29;45184;-83
2021/09/11 06:56:08;;;;;;;;;1.25;1.25;;;;;18.56;66.35;101790.72;4905222;29;45424;-83
2021/09/11 06:58:33;;;;;;;;;5.75;2.75;;;;;18.61;66.76;101788.69;4891855;29;45241;-84
2021/09/11 07:01:00;;;;;;;;;3.50;1.25;;;;;18.66;66.88;101786.66;4904921;29;45217;-85
2021/09/11 07:03:26;;;;;;;;;1.75;1.75;;;;;18.73;65.74;101791.66;4901756;29;45301;-83
2021/09/11 07:05:51;;;;;;;;;1.00;1.00;;;;;18.74;66.27;101788.91;4893472;29;45418;-87
2021/09/11 07:08:17;;;;;;;;;1.00;1.00;;;;;18.74;65.55;101790.75;4892264;29;45508;-81
2021/09/11 07:10:43;;;;;;;;;1.00;1.00;;;;;18.84;65.33;101802.63;4891498;29;45317;-81
2021/09/11 07:13:08;;;;;;;;;0.50;0.50;;;;;18.85;66.57;101808.81;4893542;29;45361;-81
2021/09/11 07:15:34;;;;;;;;;4.00;2.00;;;;;18.85;66.29;101801.69;4892367;29;45467;-81
2021/09/11 07:18:00;;;;;;;;;2.00;1.00;;;;;18.89;66.24;101808.56;4904465;29;46042;-84
2021/09/11 07:20:26;;;;;;;;;1.25;1.25;;;;;18.95;66.29;101801.22;4904416;28;45205;-84
2021/09/11 07:22:51;;;;;;;;;2.00;1.00;;;;;19.06;65.49;101812.16;4892206;29;45270;-85
2021/09/11 07:25:17;;;;;;;;;2.25;1.00;;;;;19.08;64.33;101802.31;4904754;29;45386;-83
2021/09/11 07:27:42;;;;;;;;;3.00;1.25;;;;;19.14;65.12;101805.59;4900142;29;45975;-83
2021/09/11 07:30:08;;;;;;;;;3.75;3.25;;;;;19.18;65.59;101807.19;4904718;29;45282;-83
2021/09/11 07:32:34;;;;;;;;;5.25;2.50;;;;;19.25;64.93;101802.38;4895897;29;45517;-83
2021/09/11 07:34:59;;;;;;;;;0.75;0.75;;;;;19.27;63.52;101801.34;4902770;29;45600;-83
2021/09/11 07:37:25;;;;;;;;;0.75;0.75;;;;;19.31;62.70;101812.72;4904616;29;45373;-83
2021/09/11 07:39:50;;;;;;;;;1.00;1.00;;;;;19.23;63.31;101803.34;4904296;29;45303;-82
2021/09/11 07:42:17;;;;;;;;;1.25;1.25;;;;;19.25;63.93;101813.03;4905053;29;45335;-82
2021/09/11 07:44:42;;;;;;;;;1.00;1.00;;;;;19.26;62.35;101806.78;4904818;29;45527;-81
2021/09/11 07:47:08;;;;;;;;;2.25;1.00;;;;;19.23;62.52;101813.13;4891755;29;46366;-81
2021/09/11 07:49:33;;;;;;;;;3.00;1.75;;;;;19.22;64.11;101803.41;4903034;29;45431;-81
2021/09/11 07:51:59;;;;;;;;;1.50;1.00;;;;;19.27;61.46;101804.03;4900411;29;45514;-81
2021/09/11 07:54:24;;;;;;;;;1.00;1.00;;;;;19.23;61.32;101810.47;4893704;29;45314;-81
2021/09/11 07:56:49;;;;;;;;;1.00;1.00;;;;;19.25;62.11;101815.72;4897683;29;45469;-81
2021/09/11 07:59:15;;;;;;;;;1.25;1.00;;;;;19.28;61.25;101819.09;4899017;29;45356;-81
2021/09/11 08:01:40;;;;;;;;;2.25;2.00;;;;;19.26;61.37;101818.28;4896160;29;45877;-80
2021/09/11 08:04:05;;;;;;;;;0.00;0.00;;;;;19.30;62.29;101811.88;4902084;29;45701;-81
2021/09/11 08:06:31;;;;;;;;;1.75;1.00;;;;;19.28;60.55;101821.75;4902497;29;46698;-81
2021/09/11 08:08:56;;;;;;;;;2.00;2.00;;;;;19.28;61.39;101829.75;4902276;29;45343;-80
2021/09/11 08:11:22;;;;;;;;;0.25;0.25;;;;;19.28;60.37;101829.75;4902810;29;45989;-81
2021/09/11 08:13:47;;;;;;;;;2.25;1.00;;;;;19.29;61.96;101827.91;4898832;29;45283;-81
2021/09/11 08:16:13;;;;;;;;;1.50;1.50;;;;;19.34;60.95;101831.19;4897556;29;45423;-75
2021/09/11 08:18:38;;;;;;;;;1.00;1.00;;;;;19.42;60.89;101831.66;4901080;29;45411;-81
2021/09/11 08:21:04;;;;;;;;;2.75;1.00;;;;;19.49;62.30;101837.53;4895666;29;45456;-81
2021/09/11 08:23:30;;;;;;;;;1.50;1.50;;;;;19.49;60.91;101832.19;4893764;29;45282;-81
2021/09/11 08:25:56;;;;;;;;;0.00;0.00;;;;;19.57;59.83;101842.44;4903417;29;46399;-81
2021/09/11 08:28:21;;;;;;;;;1.25;1.00;;;;;19.54;58.86;101846.13;4901282;29;45467;-81
2021/09/11 08:30:47;;;;;;;;;0.75;0.75;;;;;19.54;59.82;101840.81;4903486;29;45555;-82
2021/09/11 08:33:14;;;;;;;;;2.25;2.00;;;;;19.55;59.31;101847.88;4889756;29;45382;-80
2021/09/11 08:35:40;;;;;;;;;3.25;2.25;;;;;19.58;59.87;101845.97;4903638;29;45670;-80
2021/09/11 08:38:06;;;;;;;;;1.50;1.00;;;;;19.60;58.85;101849.41;4903325;29;45685;-80
2021/09/11 08:40:31;;;;;;;;;2.00;2.00;;;;;19.61;59.03;101851.13;4886456;29;45301;-81
2021/09/11 08:42:57;;;;;;;;;2.00;2.00;;;;;19.63;58.60;101859.94;4900278;29;45541;-81
2021/09/11 08:45:23;;;;;;;;;2.00;0.00;;;;;19.60;57.89;101852.09;4900774;29;46610;-81
2021/09/11 08:47:49;;;;;;;;;1.25;1.00;;;;;19.56;58.17;101854.03;4903259;29;45308;-80
2021/09/11 08:50:16;;;;;;;;;1.00;1.00;;;;;19.47;57.79;101855.41;4901637;29;45383;-81
2021/09/11 08:52:50;;;;;;;;;1.00;1.00;;;;;19.47;58.51;101860.75;4901646;29;45514;-80
2021/09/11 08:55:17;;;;;;;;;2.75;1.00;;;;;19.44;58.89;101856.44;4900387;29;46395;-82
2021/09/11 08:58:03;;;;;;;;;2.00;2.00;;;;;19.48;58.39;101857.16;4903101;29;45348;-80
2021/09/11 09:00:53;;;;;;;;;1.75;1.75;;;;;19.45;58.34;101862.63;4903263;29;45284;-82
2021/09/11 09:03:35;;;;;;;;;1.00;1.00;;;;;19.49;58.09;101857.97;4903101;29;45440;-81
2021/09/11 09:06:27;;;;;;;;;3.25;0.00;;;;;19.47;58.81;101862.53;4903189;29;46428;-81
2021/09/11 09:09:06;;;;;;;;;2.00;2.00;;;;;19.45;58.21;101849.31;4902476;29;45317;-81
2021/09/11 09:11:33;;;;;;;;;1.00;1.00;;;;;19.48;58.91;101841.16;4903196;29;45274;-81
2021/09/11 09:14:02;;;;;;;;;1.50;1.50;;;;;19.54;58.50;101851.47;4903041;29;45320;-81
2021/09/11 09:16:42;;;;;;;;;4.00;3.00;;;;;19.52;58.50;101841.81;4902936;29;45504;-81
2021/09/11 09:19:17;;;;;;;;;4.25;3.00;;;;;19.65;58.77;101848.25;4895283;29;45276;-81
2021/09/11 09:21:45;;;;;;;;;4.25;1.00;;;;;19.69;57.95;101832.91;4895543;29;45370;-81
2021/09/11 09:24:14;;;;;;;;;1.00;1.00;;;;;19.78;57.52;101842.19;4897345;29;45415;-81
2021/09/11 09:26:55;;;;;;;;;1.25;1.25;;;;;19.81;58.39;101831.38;4900343;29;45505;-81
2021/09/11 09:29:22;;;;;;;;;3.00;1.50;;;;;19.90;57.14;101838.03;4880257;29;45731;-81
2021/09/11 09:31:50;;;;;;;;;1.00;1.00;;;;;19.92;58.21;101828.13;4898608;29;45395;-81
2021/09/11 09:34:36;;;;;;;;;1.00;1.00;;;;;20.00;56.28;101836.53;4899296;29;45538;-81
2021/09/11 09:37:07;;;;;;;;;1.25;1.25;;;;;19.99;56.74;101832.19;4902842;29;45472;-81
2021/09/11 09:39:44;;;;;;;;;4.25;2.50;;;;;20.04;58.09;101837.25;4900996;29;45323;-81
2021/09/11 09:42:11;;;;;;;;;1.25;1.25;;;;;20.13;57.96;101836.75;4894401;29;45506;-81
2021/09/11 09:44:48;;;;;;;;;1.00;1.00;;;;;20.24;57.95;101836.16;4898428;29;45417;-81
2021/09/11 09:47:16;;;;;;;;;3.00;1.75;;;;;20.37;56.51;101842.59;4882826;29;46171;-81
2021/09/11 09:50:04;;;;;;;;;1.50;1.50;;;;;20.38;55.73;101845.16;4899333;28;45360;-81
2021/09/11 09:52:30;;;;;;;;;2.00;2.00;;;;;20.32;54.67;101825.03;4901212;29;45283;-81
2021/09/11 09:54:56;;;;;;;;;1.75;1.75;;;;;20.33;56.96;101824.09;4890250;29;45261;-81
2021/09/11 09:57:22;;;;;;;;;3.00;1.75;;;;;20.37;56.45;101826.59;4890191;29;45442;-81
2021/09/11 09:59:50;;;;;;;;;1.75;1.75;;;;;20.45;56.53;101825.19;4901617;29;45499;-81
2021/09/11 10:02:15;;;;;;;;;4.00;3.00;;;;;20.52;55.05;101830.19;4901118;29;45379;-81
2021/09/11 10:04:41;;;;;;;;;2.75;2.75;;;;;20.50;55.99;101824.03;4895950;29;47144;-81
2021/09/11 10:07:07;;;;;;;;;3.00;2.00;;;;;20.51;55.92;101817.75;4901920;29;45497;-81
2021/09/11 10:09:33;;;;;;;;;2.75;2.75;;;;;20.53;56.31;101823.88;4888667;29;45647;-81
2021/09/11 10:11:59;;;;;;;;;2.75;1.75;;;;;20.57;56.44;101826.28;4902568;29;45343;-81
2021/09/11 10:14:32;;;;;;;;;3.50;2.00;;;;;20.61;57.15;101812.75;4896356;29;45421;-81
2021/09/11 10:17:03;;;;;;;;;1.50;1.50;;;;;20.72;56.88;101828.97;4897789;29;46250;-81
2021/09/11 10:19:31;;;;;;;;;4.25;2.25;;;;;20.72;56.50;101823.63;4902062;29;45497;-81
2021/09/11 10:22:27;;;;;;;;;1.25;1.25;;;;;20.73;55.91;101813.81;4902288;29;45375;-81
2021/09/11 10:25:04;;;;;;;;;1.25;1.25;;;;;20.74;55.90;101815.56;4893956;29;45608;-83
2021/09/11 10:27:38;;;;;;;;;5.00;2.00;;;;;20.76;55.85;101816.31;4881043;29;46362;-82
2021/09/11 10:30:12;;;;;;;;;4.75;3.00;;;;;20.82;56.42;101815.09;4902281;29;45441;-82
2021/09/11 10:32:44;;;;;;;;;4.00;2.25;;;;;20.87;56.04;101819.19;4903295;29;45478;-82
2021/09/11 10:35:20;;;;;;;;;1.00;1.00;;;;;20.97;56.24;101818.63;4896686;29;45445;-82
2021/09/11 10:37:50;;;;;;;;;3.00;3.00;;;;;21.04;54.34;101817.34;4900054;29;45410;-82
2021/09/11 10:40:28;;;;;;;;;1.25;1.25;;;;;21.14;54.82;101823.84;4896867;29;45466;-82
2021/09/11 10:43:14;;;;;;;;;1.75;0.50;;;;;21.20;55.57;101821.75;4895590;29;45258;-82
2021/09/11 10:45:44;;;;;;;;;2.00;2.00;;;;;21.27;55.43;101820.44;4905196;29;45495;-82
2021/09/11 10:48:31;;;;;;;;;1.00;1.00;;;;;21.35;54.58;101819.97;4904544;29;46542;-82
2021/09/11 10:50:57;;;;;;;;;1.50;1.50;;;;;21.35;53.18;101811.94;4905254;29;45443;-81
2021/09/11 10:53:23;;;;;;;;;2.00;2.00;;;;;21.33;54.83;101808.50;4905182;29;45422;-82
2021/09/11 10:55:49;;;;;;;;;3.50;3.00;;;;;21.36;54.65;101805.63;4900635;29;45522;-81
2021/09/11 10:58:27;;;;;;;;;1.00;1.00;;;;;21.46;54.75;101811.25;4904822;29;45501;-81
2021/09/11 11:01:00;;;;;;;;;2.75;2.00;;;;;21.51;54.58;101811.81;4902260;29;45266;-80
2021/09/11 11:03:26;;;;;;;;;1.50;1.00;;;;;21.50;54.38;101804.78;4904454;29;45365;-80
2021/09/11 11:06:02;;;;;;;;;1.50;1.50;;;;;21.58;54.25;101818.50;4903325;29;45499;-80
2021/09/11 11:08:32;;;;;;;;;3.25;2.00;;;;;21.65;54.45;101812.78;4895034;29;45422;-80
2021/09/11 11:11:01;;;;;;;;;1.75;1.75;;;;;21.63;53.83;101820.88;4904264;29;45236;-80
2021/09/11 11:13:27;;;;;;;;;2.75;2.00;;;;;21.65;54.38;101807.44;4904882;29;45688;-81
2021/09/11 11:15:54;;;;;;;;;2.00;2.00;;;;;21.76;54.20;101810.28;4902938;29;45446;-84
2021/09/11 11:18:20;;;;;;;;;2.00;2.00;;;;;21.78;53.78;101813.69;4898608;28;45750;-83
2021/09/11 11:20:45;;;;;;;;;2.00;2.00;;;;;21.78;53.64;101815.53;4904716;29;45299;-84
2021/09/11 11:23:11;;;;;;;;;4.25;3.00;;;;;21.73;53.75;101810.47;4892514;29;45467;-84